Aérodrome :
LOGIN :

S'inscrire | Disclaimer

   EN    FR    IT 

 










Légende :    VFR   VFR Marginal   IFR   IFR Intensif   IFR Très Intensif
Visi : 
Plafond : 
>= 8 km
>= 3000ft
5 à 8 km
1000 à 3000 ft
1500m à 5 km
500 à 1000 ft
800 à 1500m
200 à 500 ft
< 800m
< 200 ft
Symboles :   Orages  Brouillard  Fortes neiges  Fortes précipitations  Vent > 20 kt
SIGMETs :   Divers  Orages  Givrage  Turbulence  Onde Orograph.  Cendres Volcan.






- Altitude de l'aérodrome : 408 ft
- Code IATA : FKB


EDSB - Karlsruhe Baden Baden

DERNIER METAR :
  • 101950Z VRB02KT CAVOK 12/04 Q1010

METARs EXPIRÉS :
  • 101920Z 31003KT CAVOK 12/05 Q1010
  • 101850Z 36004KT CAVOK 13/04 Q1010
  • 101820Z 36004KT CAVOK 13/04 Q1010
  • 101750Z 01005KT CAVOK 13/04 Q1010
  • 101720Z 36006KT CAVOK 14/03 Q1010
  • 101650Z 02005KT CAVOK 14/04 Q1010

TAF TAF EDSB
Valide du 10 à 18h jusqu'au 11 à 18h UTC


101700Z 1018/1118 VRB03KT CAVOK
BECMG 1108/1110 23007KT
BECMG 1113/1116 29007KT
PROB40
TEMPO 1114/1118 SHRA BKN060CB
PROB30
TEMPO 1115/1118 20015G25KT 4000 TSRA BKN030CB



MET'MAP, la Météo Aéronautique d'un coup d'oeil ! - Copyright ORBIFLY Décembre 2007 - Disclaimer

ORBIFLY MET'MAP TEAM :

Programmation & Développement : Alexandra Zaïnal
Sur une idée originale de : Baudouin d'Aumeries
Assistance à la programmation : Marc-Olivier Méhu
Soutien technique & logistique : Manuel Goepfert

Contact : metmap@orbifly.com




SOURCES & CREDITS :

   NOAA